Home > Products > Valid Products > TAF

000
FTUS41 KBTV 310532
TAFMPV
TAF
KMPV 310532Z 3106/0106 33004KT P6SM OVC040
      TEMPO 3106/3110 BKN025
     FM311400 VRB03KT P6SM OVC035=



000
FTUS41 KBTV 310532
TAFSLK
TAF
KSLK 310532Z 3106/0106 VRB03KT P6SM SCT025 BKN050
     FM312100 12004KT P6SM VCSH BKN028
     FM010400 03004KT P6SM VCSH SCT018 OVC025=



000
FTUS41 KBTV 310532
TAFBTV
TAF
KBTV 310532Z 3106/0106 34006KT P6SM SCT025 OVC040
      TEMPO 3106/3110 BKN025
     FM311600 VRB03KT P6SM SCT045 BKN120=



000
FTUS41 KBTV 310532
TAFMSS
TAF
KMSS 310532Z 3106/0106 30004KT P6SM BKN045
     FM312000 06008KT P6SM BKN050
     FM010300 04006KT P6SM VCSH SCT020 OVC030=



000
FTUS41 KBTV 310248 AAB
TAFBTV
TAF AMD
KBTV 310248Z 3103/3124 36007KT P6SM SCT025 OVC050
      TEMPO 3103/3107 BKN025
     FM311600 VRB03KT P6SM BKN050=



000
FTUS41 KBTV 310113 AAA
TAFMPV
TAF AMD
KMPV 310113Z 3101/3124 33006KT P6SM OVC025
     FM311400 VRB03KT P6SM OVC035=



000
FTUS41 KBTV 310112 AAA
TAFSLK
TAF AMD
KSLK 310112Z 3101/3124 VRB03KT P6SM OVC035
      TEMPO 3101/3105 -SN OVC015
     FM312100 VRB04KT P6SM VCSH OVC030=



000
FTUS41 KBTV 302320
TAFMSS
TAF
KMSS 302320Z 3100/3124 30006KT P6SM BKN035
     FM312000 06008KT P6SM VCSH OVC030=



000
FTUS41 KBTV 302320
TAFMPV
TAF
KMPV 302320Z 3100/3124 VRB03KT P6SM OVC040=



000
FTUS41 KBTV 302320
TAFSLK
TAF
KSLK 302320Z 3100/3124 VRB03KT P6SM OVC035
     FM312100 VRB04KT P6SM VCSH OVC030=



000
FTUS41 KBTV 302320
TAFBTV
TAF
KBTV 302320Z 3100/3124 36007KT P6SM BKN040
     FM311600 VRB03KT P6SM BKN050=



000
FTUS41 KBTV 301720
TAFBTV
TAF
KBTV 301720Z 3018/3118 31007KT P6SM BKN040
     FM310200 VRB03KT P6SM BKN050
     FM311600 16004KT P6SM OVC070=



000
FTUS41 KBTV 301720
TAFMSS
TAF
KMSS 301720Z 3018/3118 27008KT P6SM BKN040
     FM310900 06008KT P6SM BKN045=



000
FTUS41 KBTV 301720
TAFSLK
TAF
KSLK 301720Z 3018/3118 25008KT P6SM BKN025
     FM302200 28005KT P6SM BKN030
     FM311400 VRB03KT P6SM OVC035=



000
FTUS41 KBTV 301720
TAFMPV
TAF
KMPV 301720Z 3018/3118 30008KT P6SM BKN035
     FM310200 VRB03KT P6SM SCT060
     FM311300 VRB03KT P6SM BKN070=



000
FTUS41 KBTV 301133
TAFSLK
TAF
KSLK 301133Z 3012/3112 27006KT P6SM -SHRA SCT008 BKN015
      TEMPO 3012/3014 BKN008
     FM301500 27004KT P6SM SCT018 BKN028
     FM302200 VRB03KT P6SM SCT025 BKN040
     FM310400 00000KT P6SM BKN025=



000
FTUS41 KBTV 301133
TAFMSS
TAF
KMSS 301133Z 3012/3112 28006KT P6SM SCT045
     FM310400 27005KT P6SM BKN035=



000
FTUS41 KBTV 301133
TAFBTV
TAF
KBTV 301133Z 3012/3112 30007KT P6SM VCSH OVC040
     FM301500 33008KT P6SM BKN050
     FM302200 34004KT P6SM SCT120=



000
FTUS41 KBTV 301133
TAFMPV
TAF
KMPV 301133Z 3012/3112 23004KT P6SM VCSH OVC030
     FM301400 32008KT P6SM BKN035
     FM302200 34003KT P6SM SCT120=



000
FTUS41 KBTV 300530
TAFMPV
TAF
KMPV 300530Z 3006/3106 23004KT P6SM VCSH OVC045
     FM300830 23004KT P6SM VCSH OVC025
     FM301400 32008KT P6SM BKN035
     FM302200 34003KT P6SM SCT120=



000
FTUS41 KBTV 300530
TAFSLK
TAF
KSLK 300530Z 3006/3106 23006KT P6SM VCSH SCT012 OVC025
     FM300830 28005KT P6SM VCSH BKN008
     FM301300 27006KT P6SM OVC018
     FM301600 26004KT P6SM SCT025 OVC035
     FM302200 VRB03KT P6SM SCT045=



000
FTUS41 KBTV 300530
TAFMSS
TAF
KMSS 300530Z 3006/3106 25006KT P6SM BKN030
     FM301100 28006KT P6SM BKN045=



000
FTUS41 KBTV 300530
TAFBTV
TAF
KBTV 300530Z 3006/3106 20005KT P6SM VCSH OVC050
     FM301200 33008KT P6SM BKN040
     FM302200 34004KT P6SM SCT120=



000
FTUS41 KBTV 292320
TAFMPV
TAF
KMPV 292320Z 3000/3024 32005KT P6SM BKN045
     FM300500 VRB04KT P6SM VCSH OVC025
     FM301300 32006KT P6SM BKN035=



000
FTUS41 KBTV 292320
TAFBTV
TAF
KBTV 292320Z 3000/3024 24006KT P6SM BKN080
     FM300400 23005KT P6SM VCSH OVC035
     FM301200 33006KT P6SM BKN040=



000
FTUS41 KBTV 292320
TAFSLK
TAF
KSLK 292320Z 3000/3024 23010KT P6SM BKN045
     FM300200 23006KT P6SM VCSH OVC020
     FM301000 30007KT P6SM BKN030=



000
FTUS41 KBTV 292320
TAFMSS
TAF
KMSS 292320Z 3000/3024 22006KT P6SM VCSH OVC045
     FM300800 30007KT P6SM BKN045=



000
FTUS41 KBTV 291737
TAFBTV
TAF
KBTV 291737Z 2918/3018 28010G16KT P6SM BKN050 OVC200
     FM292300 24007KT P6SM SCT080 BKN250
     FM300400 22006KT P6SM BKN050
     FM301600 32006KT P6SM BKN040=



000
FTUS41 KBTV 291737
TAFMPV
TAF
KMPV 291737Z 2918/3018 24006KT P6SM SCT100 OVC200
     FM300000 27009KT P6SM SCT070 BKN250
     FM300700 28007KT P6SM BKN045
     FM301000 30006KT P6SM BKN030
     FM301500 31006KT P6SM BKN040=



000
FTUS41 KBTV 291737
TAFSLK
TAF
KSLK 291737Z 2918/3018 24007G15KT P6SM SCT029 BKN040 OVC060
     FM300200 25008KT P6SM BKN040
     FM300700 27007KT P6SM BKN025
     FM301500 27006KT P6SM BKN040=



000
FTUS41 KBTV 291737
TAFMSS
TAF
KMSS 291737Z 2918/3018 23012G23KT P6SM BKN045 BKN070
     FM292200 24009KT P6SM BKN050
     FM300600 28008KT P6SM BKN050
     FM301100 28005KT P6SM SCT050=



000
FTUS41 KBTV 291124
TAFMPV
TAF
KMPV 291124Z 2912/3012 VRB04KT P6SM VCSH OVC035
     FM291400 23007KT P6SM BKN040
     FM291800 26010KT P6SM SCT045
     FM292300 28003KT P6SM BKN045=



000
FTUS41 KBTV 291124
TAFMSS
TAF
KMSS 291124Z 2912/3012 21008KT P6SM OVC045
     FM291400 23010G20KT P6SM SCT045
     FM291600 23015G25KT P6SM BKN045
     FM292200 24009KT P6SM BKN080=



000
FTUS41 KBTV 291124
TAFBTV
TAF
KBTV 291124Z 2912/3012 20004KT P6SM BKN035
     FM291500 23008G16KT P6SM SCT040 BKN150
     FM292300 25007KT P6SM SCT045=



000
FTUS41 KBTV 291124
TAFSLK
TAF
KSLK 291124Z 2912/3012 24008KT P6SM BKN035
     FM291500 23014G24KT P6SM BKN045
     FM292000 24007KT P6SM SCT030
     FM300300 23006KT P6SM -SHRA OVC025=



000
FTUS41 KBTV 291039 AAB
TAFSLK
TAF AMD
KSLK 291039Z 2911/3006 00000KT 1/2SM FG BKN002
     FM291200 24008KT P6SM BKN035
     FM292000 24007KT P6SM VCSH BKN030=



000
FTUS41 KBTV 291039 AAB
TAFSLK
TAF AMD
KSLK 291039Z 2911/3006 00000KT 1/2SM FG BKN002
     FM291200 24008KT P6SM BKN035
     FM292000 24007KT P6SM VCSH BKN030=



000
FTUS41 KBTV 291006 AAA
TAFSLK
TAF AMD
KSLK 291006Z 2910/3006 22006KT 5SM -SHRA BR BKN045
      TEMPO 2910/2912 2SM BR SCT030
     FM291200 24008KT P6SM BKN035
     FM292000 24007KT P6SM VCSH BKN030=



000
FTUS41 KBTV 290525
TAFBTV
TAF
KBTV 290525Z 2906/3006 17007KT P6SM -SHRA OVC060
      TEMPO 2907/2910 5SM -RA OVC035
     FM291000 20004KT P6SM BKN045
     FM291500 24008G16KT P6SM BKN050=



000
FTUS41 KBTV 290525
TAFSLK
TAF
KSLK 290525Z 2906/3006 22006KT 5SM -SHRA BR BKN018
      TEMPO 2906/2907 2SM SHRA BR OVC008
     FM290800 24006KT P6SM -SHRA OVC028
     FM291200 24008KT P6SM BKN035
     FM292000 24007KT P6SM VCSH BKN030=



000
FTUS41 KBTV 290525
TAFMSS
TAF
KMSS 290525Z 2906/3006 22006KT P6SM BKN045
     FM290900 23008KT P6SM OVC060
     FM291200 23010G20KT P6SM SCT035
     FM292100 24006KT P6SM BKN080=



000
FTUS41 KBTV 290525
TAFMPV
TAF
KMPV 290525Z 2906/3006 19007KT P6SM VCSH SCT045 BKN120
     FM290700 17007KT P6SM -SHRA BKN050
      TEMPO 2907/2910 4SM -RA OVC030
     FM291000 VRB04KT P6SM VCSH OVC035
     FM291500 23007KT P6SM BKN040=



000
FTUS41 KBTV 290055 AAB
TAFBTV
TAF AMD
KBTV 290055Z 2901/2924 16007KT P6SM BKN100
     FM290200 14007KT P6SM VCSH BKN050
      TEMPO 2902/2906 5SM -RA OVC030
     FM290800 VRB04KT P6SM BKN035
     FM291400 22007KT P6SM BKN050=



000
FTUS41 KBTV 290006 AAA
TAFBTV
TAF AMD
KBTV 290006Z 2900/2924 14010G22KT P6SM BKN100
     FM290200 14007KT P6SM VCSH BKN050
      TEMPO 2902/2906 5SM -RA OVC030
     FM290800 VRB04KT P6SM BKN035
     FM291400 22007KT P6SM BKN050=



000
FTUS41 KBTV 282332
TAFBTV
TAF
KBTV 282332Z 2900/2924 13005KT P6SM BKN100
     FM290200 14007KT P6SM VCSH BKN050
      TEMPO 2902/2906 5SM -RA OVC030
     FM290800 VRB04KT P6SM BKN035
     FM291400 22007KT P6SM BKN050=



000
FTUS41 KBTV 282332
TAFSLK
TAF
KSLK 282332Z 2900/2924 24005KT P6SM BKN120
     FM290100 24005KT P6SM VCSH BKN060
      TEMPO 2901/2905 5SM -RA OVC030
     FM290600 24004KT P6SM OVC030
     FM291300 24008KT P6SM BKN035
     FM292000 24007KT P6SM VCSH BKN030=



000
FTUS41 KBTV 282332
TAFMPV
TAF
KMPV 282332Z 2900/2924 19007KT P6SM BKN150
     FM290400 17007KT P6SM VCSH BKN050
      TEMPO 2904/2908 5SM -RA OVC030
     FM291000 VRB04KT P6SM OVC035
     FM291500 23007KT P6SM BKN040=



000
FTUS41 KBTV 282332
TAFMSS
TAF
KMSS 282332Z 2900/2924 VRB04KT P6SM VCSH OVC060
      TEMPO 2900/2903 5SM -RA OVC030
     FM290400 22006KT P6SM BKN035
     FM291200 23010G20KT P6SM SCT035=



000
FTUS41 KBTV 282025 AAA
TAFSLK
TAF AMD
KSLK 282025Z 2820/2918 20005KT P6SM BKN250
     FM290200 23008KT 5SM -SHRA BR OVC025
      TEMPO 2902/2906 3SM -SHRA BR SCT008 OVC015
     FM290700 23007KT 6SM BR BKN015
     FM291300 23008KT P6SM OVC030
     FM291400 24010G17KT P6SM OVC035=



000
FTUS41 KBTV 282023 AAB
TAFBTV
TAF AMD
KBTV 282023Z 2820/2918 16008KT P6SM BKN250
     FM290500 19010G16KT 6SM -SHRA BR OVC025
     FM291300 20005KT P6SM BKN035=



000
FTUS41 KBTV 282021 AAA
TAFMPV
TAF AMD
KMPV 282021Z 2820/2918 17008KT P6SM BKN250
     FM290600 19004KT P6SM -SHRA OVC020
     FM291500 26005KT P6SM VCSH OVC025
     FM291600 26005KT P6SM OVC035=



000
FTUS41 KBTV 281738
TAFSLK
TAF
KSLK 281738Z 2818/2918 00000KT P6SM SCT090
     FM290200 23008KT 5SM -SHRA BR OVC025
      TEMPO 2902/2906 3SM -SHRA BR SCT008 OVC015
     FM290700 23007KT 6SM BR BKN015
     FM291300 23008KT P6SM OVC030
     FM291400 24010G17KT P6SM OVC035=



000
FTUS41 KBTV 281738
TAFMSS
TAF
KMSS 281738Z 2818/2918 06008KT P6SM SCT080 SCT090 BKN110
     FM282100 12008KT P6SM BKN050
     FM290100 21009KT 6SM -SHRA BR OVC025
     FM290400 22008KT P6SM BKN020
     FM291000 23006KT P6SM BKN070
     FM291400 24011G18KT P6SM SCT040=



000
FTUS41 KBTV 281738
TAFMPV
TAF
KMPV 281738Z 2818/2918 00000KT P6SM OVC090
     FM281930 17010G18KT P6SM SCT060 BKN250
     FM290600 19004KT P6SM -SHRA OVC020
     FM291500 26005KT P6SM VCSH OVC025
     FM291600 26005KT P6SM OVC035=



000
FTUS41 KBTV 281738
TAFBTV
TAF
KBTV 281738Z 2818/2918 11004KT P6SM SCT050 BKN110
     FM281900 18010G18KT P6SM SCT060 BKN250
     FM290500 19010G16KT 6SM -SHRA BR OVC025
     FM291300 20005KT P6SM BKN035=



000
FTUS41 KBTV 281550 AAA
TAFMPV
TAF AMD
KMPV 281550Z 2816/2912 00000KT P6SM OVC040
      TEMPO 2816/2817 6SM -SHRA OVC030
     FM281730 17010G18KT P6SM SCT060 BKN250
     FM290600 18006KT P6SM -SHRA OVC040
      TEMPO 2906/2910 3SM SHRA BR OVC028
     FM291000 22006KT P6SM VCSH OVC025=



000
FTUS41 KBTV 281550 AAA
TAFMPV
TAF AMD
KMPV 281550Z 2816/2912 00000KT P6SM OVC040
      TEMPO 2816/2817 6SM -SHRA OVC030
     FM281730 17010G18KT P6SM SCT060 BKN250
     FM290600 18006KT P6SM -SHRA OVC040
      TEMPO 2906/2910 3SM SHRA BR OVC028
     FM291000 22006KT P6SM VCSH OVC025=



000
FTUS41 KBTV 281542 AAB
TAFBTV
TAF AMD
KBTV 281542Z 2816/2912 15005KT P6SM BKN045 OVC090
      TEMPO 2816/2817 -SHRA
     FM281800 18010G18KT P6SM SCT060 BKN250
     FM290500 18010KT 5SM -SHRA BR OVC035
     FM290900 22007KT P6SM VCSH SCT028 OVC045=



000
FTUS41 KBTV 281538 AAA
TAFSLK
TAF AMD
KSLK 281538Z 2816/2912 00000KT P6SM SCT035 BKN080
     FM281730 21009G18KT P6SM BKN250
     FM290100 22008KT P6SM VCSH SCT025 BKN040
      TEMPO 2901/2905 4SM -SHRA BR SCT018 OVC025
     FM290600 23006KT P6SM VCSH OVC015=



000
FTUS41 KBTV 281120
TAFMPV
TAF
KMPV 281120Z 2812/2912 16005KT P6SM VCSH SCT045 OVC060
     FM281500 16010KT P6SM BKN050
     FM290600 18006KT P6SM -SHRA OVC040
      TEMPO 2906/2910 3SM SHRA BR OVC028
     FM291000 22006KT P6SM VCSH OVC025=



000
FTUS41 KBTV 281120
TAFSLK
TAF
KSLK 281120Z 2812/2912 VRB03KT P6SM VCSH SCT045 BKN100
      TEMPO 2812/2815 -SHRA BKN045
     FM281500 22010G18KT P6SM BKN060
     FM290100 22008KT P6SM VCSH SCT025 BKN040
      TEMPO 2901/2905 4SM -SHRA BR SCT018 OVC025
     FM290600 23006KT P6SM VCSH OVC015=



000
FTUS41 KBTV 281120
TAFBTV
TAF
KBTV 281120Z 2812/2912 15007KT P6SM VCSH OVC080
      TEMPO 2812/2815 -SHRA OVC035
     FM281500 18010G18KT P6SM OVC060
     FM290500 18010KT 5SM -SHRA BR OVC035
     FM290900 22007KT P6SM VCSH SCT028 OVC045=



000
FTUS41 KBTV 281120
TAFMSS
TAF
KMSS 281120Z 2812/2912 07009KT P6SM VCSH SCT028 OVC050
     FM281500 12010KT P6SM OVC050
     FM281800 22010G18KT P6SM SCT045 BKN100
     FM290000 22010G18KT P6SM VCSH OVC045
      TEMPO 2901/2905 5SM -SHRA BR OVC028
     FM290500 23006KT P6SM SCT018 OVC025=



    US Dept of Commerce
    National Oceanic and Atmospheric Administration
    National Weather Service
    1325 East West Highway
    Silver Spring, MD 20910
    Page Author: NWS Internet Services Team
Disclaimer
Information Quality
Credits
Glossary
Privacy Policy
Freedom of Information Act (FOIA)
About Us
Career Opportunities